createdAt,value
2018-09-18T00:00:09.873Z,17.70
2018-09-18T00:02:39.929Z,17.70
2018-09-18T00:05:09.853Z,17.70
2018-09-18T00:07:39.839Z,17.70
2018-09-18T00:10:09.987Z,17.70
2018-09-18T00:12:39.939Z,17.70
2018-09-18T00:15:09.950Z,17.70
2018-09-18T00:17:39.959Z,17.80
2018-09-18T00:20:09.948Z,17.70
2018-09-18T00:22:39.979Z,17.70
2018-09-18T00:25:09.989Z,17.70
2018-09-18T00:27:40.076Z,17.70
2018-09-18T00:30:10.502Z,17.70
2018-09-18T00:32:40.517Z,17.70
2018-09-18T00:35:10.620Z,17.60
2018-09-18T00:37:40.593Z,17.60
2018-09-18T00:40:10.693Z,17.50
2018-09-18T00:42:40.701Z,17.50
2018-09-18T00:45:10.730Z,17.50
2018-09-18T00:47:40.674Z,17.40
2018-09-18T00:50:10.834Z,17.40
2018-09-18T00:52:40.940Z,17.30
2018-09-18T00:55:11.150Z,17.30
2018-09-18T00:57:41.110Z,17.30
2018-09-18T01:00:11.136Z,17.20
2018-09-18T01:02:41.184Z,17.20
2018-09-18T01:05:11.272Z,17.20
2018-09-18T01:07:41.320Z,17.10
2018-09-18T01:10:11.315Z,17.10
2018-09-18T01:12:41.255Z,17.10
2018-09-18T01:15:11.412Z,17.00
2018-09-18T01:17:41.420Z,17.00
2018-09-18T01:20:11.538Z,17.00
2018-09-18T01:22:41.552Z,17.00
2018-09-18T01:25:11.649Z,16.90
2018-09-18T01:27:41.636Z,16.90
2018-09-18T01:30:11.783Z,16.90
2018-09-18T01:32:41.880Z,16.80
2018-09-18T01:35:11.891Z,16.80
2018-09-18T01:37:41.866Z,16.70
2018-09-18T01:40:18.309Z,16.70
2018-09-18T01:42:48.279Z,16.70
2018-09-18T01:45:18.320Z,16.60
2018-09-18T01:47:48.270Z,16.60
2018-09-18T01:50:18.250Z,16.60
2018-09-18T01:52:48.270Z,16.60
2018-09-18T01:55:18.170Z,16.60
2018-09-18T01:57:48.123Z,16.60
2018-09-18T02:00:18.010Z,16.60
2018-09-18T02:02:47.990Z,16.50
2018-09-18T02:05:17.991Z,16.50
2018-09-18T02:07:47.992Z,16.50
2018-09-18T02:10:17.898Z,16.50
2018-09-18T02:12:47.951Z,16.50
2018-09-18T02:15:17.871Z,16.40
2018-09-18T02:17:47.897Z,16.40
2018-09-18T02:20:17.938Z,16.40
2018-09-18T02:22:47.941Z,16.40
2018-09-18T02:25:17.895Z,16.40
2018-09-18T02:27:47.895Z,16.40
2018-09-18T02:30:17.913Z,16.30
2018-09-18T02:32:47.874Z,16.30
2018-09-18T02:35:17.900Z,16.30
2018-09-18T02:37:48.133Z,16.30
2018-09-18T02:40:18.090Z,16.30
2018-09-18T02:42:48.031Z,16.30
2018-09-18T02:45:17.979Z,16.20
2018-09-18T02:47:48.021Z,16.20
2018-09-18T02:50:18.012Z,16.20
2018-09-18T02:52:47.957Z,16.20
2018-09-18T02:55:17.937Z,16.20
2018-09-18T02:57:47.898Z,16.20
2018-09-18T03:00:17.902Z,16.20
2018-09-18T03:02:48.190Z,16.20
2018-09-18T03:05:18.130Z,16.20
2018-09-18T03:07:48.164Z,16.20
2018-09-18T03:10:18.203Z,16.20
2018-09-18T03:12:48.218Z,16.20
2018-09-18T03:15:18.263Z,16.20
2018-09-18T03:17:48.274Z,16.20
2018-09-18T03:20:18.238Z,16.10
2018-09-18T03:22:48.210Z,16.10
2018-09-18T03:25:18.176Z,16.10
2018-09-18T03:27:48.197Z,16.10
2018-09-18T03:30:18.454Z,16.10
2018-09-18T03:32:48.655Z,16.10
2018-09-18T03:35:18.652Z,16.10
2018-09-18T03:37:48.677Z,16.10
2018-09-18T03:40:18.638Z,16.10
2018-09-18T03:42:48.900Z,16.10
2018-09-18T03:45:18.904Z,16.10
2018-09-18T03:47:48.903Z,16.10
2018-09-18T03:50:18.864Z,16.10
2018-09-18T03:52:48.824Z,16.10
2018-09-18T03:55:18.830Z,16.10
2018-09-18T03:57:48.786Z,16.10
2018-09-18T04:00:18.820Z,16.10
2018-09-18T04:02:48.904Z,16.10
2018-09-18T04:05:18.782Z,16.10
2018-09-18T04:07:48.714Z,16.10
2018-09-18T04:10:18.774Z,16.10
2018-09-18T04:12:48.713Z,16.10
2018-09-18T04:15:18.707Z,16.10
2018-09-18T04:17:51.860Z,16.10
2018-09-18T04:20:21.921Z,16.10
2018-09-18T04:22:51.886Z,16.10
2018-09-18T04:25:21.961Z,16.10
2018-09-18T04:27:51.980Z,16.10
2018-09-18T04:30:22.464Z,16.10
2018-09-18T04:32:52.557Z,16.10
2018-09-18T04:35:22.633Z,16.10
2018-09-18T04:37:52.639Z,16.10
2018-09-18T04:40:22.621Z,16.10
2018-09-18T04:42:52.485Z,16.10
2018-09-18T04:45:22.441Z,16.10
2018-09-18T04:47:52.326Z,16.10
2018-09-18T04:50:22.363Z,16.10
2018-09-18T04:52:52.324Z,16.00
2018-09-18T04:55:22.245Z,16.00
2018-09-18T04:57:52.300Z,16.00
2018-09-18T05:00:22.331Z,16.00
2018-09-18T05:02:52.381Z,16.00
2018-09-18T05:05:22.479Z,16.00
2018-09-18T05:07:52.501Z,16.00
2018-09-18T05:10:22.515Z,16.00
2018-09-18T05:12:52.463Z,16.00
2018-09-18T05:15:22.434Z,16.00
2018-09-18T05:17:52.421Z,16.00
2018-09-18T05:20:22.496Z,16.00
2018-09-18T05:22:52.552Z,16.00
2018-09-18T05:25:22.566Z,16.00
2018-09-18T05:27:52.636Z,16.00
2018-09-18T05:30:22.705Z,16.00
2018-09-18T05:32:52.734Z,16.00
2018-09-18T05:35:22.713Z,16.10
2018-09-18T05:37:52.814Z,16.10
2018-09-18T05:40:22.843Z,16.10
2018-09-18T05:42:52.900Z,16.10
2018-09-18T05:45:22.931Z,16.10
2018-09-18T05:47:52.918Z,16.10
2018-09-18T05:50:22.954Z,16.10
2018-09-18T05:52:52.961Z,16.10
2018-09-18T05:55:22.931Z,16.10
2018-09-18T05:57:52.901Z,16.20
2018-09-18T06:00:22.901Z,16.20
2018-09-18T06:02:52.917Z,16.20
2018-09-18T06:05:22.877Z,16.20
2018-09-18T06:07:52.914Z,16.20
2018-09-18T06:10:22.928Z,16.20
2018-09-18T06:13:04.763Z,16.30
2018-09-18T06:15:34.691Z,16.30
2018-09-18T06:18:04.739Z,16.30
2018-09-18T06:20:34.770Z,16.40
2018-09-18T06:23:04.715Z,16.40
2018-09-18T06:25:34.713Z,16.50
2018-09-18T06:28:04.718Z,16.50
2018-09-18T06:30:34.738Z,16.50
2018-09-18T06:33:04.748Z,16.60
2018-09-18T06:35:34.707Z,16.60
2018-09-18T06:38:04.793Z,16.60
2018-09-18T06:40:34.800Z,16.70
2018-09-18T06:43:04.801Z,16.70
2018-09-18T06:45:34.837Z,16.70
2018-09-18T06:48:17.438Z,16.80
2018-09-18T06:50:47.472Z,16.80
2018-09-18T06:53:17.474Z,16.90
2018-09-18T06:55:47.489Z,16.90
2018-09-18T06:58:17.490Z,17.00
2018-09-18T07:00:47.515Z,17.10
2018-09-18T07:03:17.537Z,17.10
2018-09-18T07:05:47.515Z,17.20
2018-09-18T07:08:17.697Z,17.30
2018-09-18T07:10:47.745Z,17.30
2018-09-18T07:13:17.802Z,17.40
2018-09-18T07:15:47.790Z,17.50
2018-09-18T07:18:18.161Z,17.70
2018-09-18T07:20:48.176Z,17.80
2018-09-18T07:23:18.929Z,17.90
2018-09-18T07:25:49.026Z,18.10
2018-09-18T07:28:18.980Z,18.30
2018-09-18T07:30:49.070Z,18.50
2018-09-18T07:33:19.068Z,18.80
2018-09-18T07:35:49.220Z,19.00
2018-09-18T07:38:19.497Z,19.20
2018-09-18T07:40:49.578Z,19.50
2018-09-18T07:43:31.474Z,19.70
2018-09-18T07:46:01.439Z,20.00
2018-09-18T07:48:36.286Z,20.20
2018-09-18T07:51:08.526Z,20.50
2018-09-18T07:53:38.650Z,20.70
2018-09-18T07:56:09.021Z,20.90
2018-09-18T07:58:39.091Z,21.10
2018-09-18T08:01:09.130Z,21.40
2018-09-18T08:03:39.197Z,21.50
2018-09-18T08:06:09.181Z,21.70
2018-09-18T08:08:39.161Z,21.90
2018-09-18T08:11:09.183Z,22.10
2018-09-18T08:13:39.132Z,22.30
2018-09-18T08:16:09.131Z,22.50
2018-09-18T08:18:39.219Z,22.60
2018-09-18T08:21:09.235Z,22.80
2018-09-18T08:23:39.415Z,23.00
2018-09-18T08:26:09.465Z,23.10
2018-09-18T08:28:39.415Z,23.20
2018-09-18T08:31:09.496Z,23.40
2018-09-18T08:33:39.502Z,23.50
2018-09-18T08:36:09.524Z,23.70
2018-09-18T08:38:39.486Z,23.80
2018-09-18T08:41:09.538Z,24.00
2018-09-18T08:43:39.598Z,24.20
2018-09-18T08:46:09.756Z,24.30
2018-09-18T08:48:43.808Z,24.40
2018-09-18T08:51:13.829Z,24.60
2018-09-18T08:53:43.903Z,24.70
2018-09-18T08:56:13.911Z,24.80
2018-09-18T08:58:43.936Z,24.90
2018-09-18T09:01:14.013Z,25.00
2018-09-18T09:03:44.030Z,25.20
2018-09-18T09:06:14.132Z,25.30
2018-09-18T09:08:44.175Z,25.40
2018-09-18T09:11:14.186Z,25.50
2018-09-18T09:13:44.183Z,25.60
2018-09-18T09:16:14.303Z,25.80
2018-09-18T09:18:44.295Z,25.90
2018-09-18T09:21:14.453Z,26.00
2018-09-18T09:23:44.331Z,26.20
2018-09-18T09:26:14.519Z,26.30
2018-09-18T09:28:44.504Z,26.40
2018-09-18T09:31:14.593Z,26.60
2018-09-18T09:33:44.651Z,26.70
2018-09-18T09:36:14.727Z,26.90
2018-09-18T09:38:44.883Z,27.00
2018-09-18T09:41:14.920Z,27.20
2018-09-18T09:43:44.916Z,27.30
2018-09-18T09:46:14.993Z,27.40
2018-09-18T09:48:44.959Z,27.50
2018-09-18T09:51:15.046Z,27.60
2018-09-18T09:53:44.960Z,27.80
2018-09-18T09:56:15.015Z,27.90
2018-09-18T09:58:45.003Z,28.00
2018-09-18T10:01:20.202Z,28.10
2018-09-18T10:03:50.240Z,28.20
2018-09-18T10:06:20.461Z,28.30
2018-09-18T10:08:50.483Z,28.40
2018-09-18T10:11:20.483Z,28.50
2018-09-18T10:13:50.544Z,28.60
2018-09-18T10:16:20.561Z,28.80
2018-09-18T10:18:50.641Z,29.00
2018-09-18T10:21:20.719Z,29.10
2018-09-18T10:23:50.680Z,29.20
2018-09-18T10:26:20.887Z,29.20
2018-09-18T10:28:50.786Z,29.30
2018-09-18T10:31:20.894Z,29.40
2018-09-18T10:33:50.904Z,29.50
2018-09-18T10:36:20.955Z,29.60
2018-09-18T10:38:51.041Z,29.70
2018-09-18T10:41:21.206Z,29.90
2018-09-18T10:43:51.238Z,30.00
2018-09-18T10:46:21.235Z,30.00
2018-09-18T10:48:56.096Z,30.10
2018-09-18T10:51:26.438Z,30.20
2018-09-18T10:53:56.518Z,30.30
2018-09-18T10:56:26.552Z,30.40
2018-09-18T10:58:56.561Z,30.50
2018-09-18T11:01:26.630Z,30.60
2018-09-18T11:03:56.693Z,30.60
2018-09-18T11:06:26.722Z,30.70
2018-09-18T11:08:56.708Z,30.80
2018-09-18T11:11:26.799Z,30.90
2018-09-18T11:13:57.005Z,30.90
2018-09-18T11:16:27.043Z,31.00
2018-09-18T11:18:57.108Z,31.00
2018-09-18T11:21:27.138Z,31.10
2018-09-18T11:23:57.224Z,31.10
2018-09-18T11:26:28.202Z,31.10
2018-09-18T11:28:58.191Z,31.10
2018-09-18T11:31:28.315Z,31.10
2018-09-18T11:33:58.401Z,31.10
2018-09-18T11:36:29.098Z,31.20
2018-09-18T11:38:59.240Z,31.20
2018-09-18T11:41:29.200Z,31.20
2018-09-18T11:43:59.272Z,31.20
2018-09-18T11:46:29.498Z,31.30
2018-09-18T11:48:59.709Z,31.30
2018-09-18T11:51:30.180Z,31.30
2018-09-18T11:54:00.186Z,31.40
2018-09-18T11:56:30.343Z,31.40
2018-09-18T11:59:00.518Z,31.50
2018-09-18T12:01:30.555Z,31.50
2018-09-18T12:04:00.598Z,31.60
2018-09-18T12:06:30.619Z,31.60
2018-09-18T12:09:00.661Z,31.70
2018-09-18T12:11:30.910Z,31.60
2018-09-18T12:14:00.831Z,31.70
2018-09-18T12:16:30.823Z,31.70
2018-09-18T12:19:01.021Z,31.60
2018-09-18T12:21:30.990Z,31.70
2018-09-18T12:24:00.994Z,31.70
2018-09-18T12:26:31.004Z,31.70
2018-09-18T12:29:00.994Z,31.80
2018-09-18T12:31:31.061Z,31.80
2018-09-18T12:34:01.084Z,31.80
2018-09-18T12:36:31.060Z,31.80
2018-09-18T12:39:01.039Z,31.80
2018-09-18T12:41:31.019Z,31.70
2018-09-18T12:44:00.901Z,31.70
2018-09-18T12:46:30.780Z,31.70
2018-09-18T12:49:00.830Z,31.70
2018-09-18T12:51:30.818Z,31.70
2018-09-18T12:54:00.843Z,31.80
2018-09-18T12:56:30.767Z,31.80
2018-09-18T12:59:00.959Z,31.80
2018-09-18T13:01:30.781Z,31.90
2018-09-18T13:04:00.751Z,31.90
2018-09-18T13:06:30.793Z,31.80
2018-09-18T13:09:00.735Z,31.80
2018-09-18T13:11:30.733Z,31.80
2018-09-18T13:14:00.894Z,31.80
2018-09-18T13:16:30.896Z,31.80
2018-09-18T13:19:00.987Z,31.80
2018-09-18T13:21:30.905Z,31.80
2018-09-18T13:24:01.010Z,31.70
2018-09-18T13:26:30.993Z,31.80
2018-09-18T13:29:00.995Z,31.80
2018-09-18T13:31:31.073Z,31.80
2018-09-18T13:34:00.960Z,31.90
2018-09-18T13:36:30.945Z,31.90
2018-09-18T13:39:00.899Z,32.00
2018-09-18T13:41:30.940Z,32.00
2018-09-18T13:44:00.961Z,32.00
2018-09-18T13:46:31.019Z,32.00
2018-09-18T13:49:01.164Z,32.00
2018-09-18T13:51:31.222Z,32.10
2018-09-18T13:54:01.255Z,32.10
2018-09-18T13:56:31.597Z,32.10
2018-09-18T13:59:02.342Z,32.20
2018-09-18T14:01:33.456Z,32.10
2018-09-18T14:04:03.748Z,32.20
2018-09-18T14:06:33.691Z,32.30
2018-09-18T14:09:04.195Z,32.30
2018-09-18T14:11:34.187Z,32.30
2018-09-18T14:14:04.336Z,32.30
2018-09-18T14:16:34.682Z,32.30
2018-09-18T14:19:04.815Z,32.40
2018-09-18T14:21:34.814Z,32.40
2018-09-18T14:24:04.757Z,32.40
2018-09-18T14:26:34.841Z,32.40
2018-09-18T14:29:04.651Z,32.40
2018-09-18T14:31:34.767Z,32.50
2018-09-18T14:34:05.026Z,32.50
2018-09-18T14:36:35.219Z,32.40
2018-09-18T14:39:08.751Z,32.40
2018-09-18T14:41:39.086Z,32.40
2018-09-18T14:44:10.335Z,32.40
2018-09-18T14:46:40.457Z,32.40
2018-09-18T14:49:10.358Z,32.40
2018-09-18T14:51:40.319Z,32.50
2018-09-18T14:54:10.359Z,32.50
2018-09-18T14:56:40.359Z,32.50
2018-09-18T14:59:10.443Z,32.50
2018-09-18T15:01:40.434Z,32.60
2018-09-18T15:04:10.429Z,32.60
2018-09-18T15:06:40.395Z,32.60
2018-09-18T15:09:11.244Z,32.60
2018-09-18T15:11:41.295Z,32.60
2018-09-18T15:14:11.325Z,32.60
2018-09-18T15:16:41.321Z,32.60
2018-09-18T15:19:11.326Z,32.70
2018-09-18T15:21:41.444Z,32.60
2018-09-18T15:24:11.454Z,32.60
2018-09-18T15:26:41.535Z,32.60
2018-09-18T15:29:11.457Z,32.60
2018-09-18T15:31:41.569Z,32.60
2018-09-18T15:34:11.553Z,32.60
2018-09-18T15:36:41.521Z,32.60
2018-09-18T15:39:11.556Z,32.50
2018-09-18T15:41:41.571Z,32.50
2018-09-18T15:44:11.513Z,32.50
2018-09-18T15:46:41.652Z,32.50
2018-09-18T15:49:11.638Z,32.50
2018-09-18T15:51:41.634Z,32.50
2018-09-18T15:54:11.769Z,32.50
2018-09-18T15:56:41.861Z,32.40
2018-09-18T15:59:11.836Z,32.40
2018-09-18T16:01:41.953Z,32.30
2018-09-18T16:04:12.014Z,32.30
2018-09-18T16:06:42.075Z,32.30
2018-09-18T16:09:12.333Z,32.20
2018-09-18T16:11:42.522Z,32.20
2018-09-18T16:14:12.393Z,32.20
2018-09-18T16:16:42.591Z,32.10
2018-09-18T16:19:12.524Z,32.10
2018-09-18T16:21:42.528Z,32.00
2018-09-18T16:24:12.476Z,32.00
2018-09-18T16:26:42.555Z,32.00
2018-09-18T16:29:12.713Z,31.90
2018-09-18T16:31:43.087Z,31.80
2018-09-18T16:34:12.980Z,31.70
2018-09-18T16:36:43.115Z,31.60
2018-09-18T16:39:13.030Z,31.60
2018-09-18T16:41:43.063Z,31.60
2018-09-18T16:44:12.995Z,31.50
2018-09-18T16:46:42.957Z,31.50
2018-09-18T16:49:12.907Z,31.40
2018-09-18T16:51:50.460Z,31.40
2018-09-18T16:54:20.517Z,31.30
2018-09-18T16:56:50.519Z,31.30
2018-09-18T16:59:20.980Z,31.20
2018-09-18T17:01:51.076Z,31.10
2018-09-18T17:04:21.287Z,31.00
2018-09-18T17:06:51.879Z,31.00
2018-09-18T17:09:22.314Z,30.90
2018-09-18T17:11:52.675Z,30.90
2018-09-18T17:19:37.237Z,30.70
2018-09-18T17:22:07.294Z,30.60
2018-09-18T17:24:37.448Z,30.50
2018-09-18T17:27:07.515Z,30.40
2018-09-18T17:29:37.510Z,30.30
2018-09-18T17:32:07.847Z,30.20
2018-09-18T17:34:37.940Z,30.10
2018-09-18T17:37:08.176Z,30.00
2018-09-18T17:39:38.303Z,29.90
2018-09-18T17:42:08.491Z,29.80
2018-09-18T17:44:38.693Z,29.70
2018-09-18T17:47:08.719Z,29.60
2018-09-18T17:49:38.685Z,29.50
2018-09-18T17:52:08.990Z,29.40
2018-09-18T17:54:39.473Z,29.30
2018-09-18T17:57:10.143Z,29.20
2018-09-18T17:59:40.915Z,29.10
2018-09-18T18:02:11.567Z,29.00
2018-09-18T18:04:42.107Z,28.90
2018-09-18T18:07:12.838Z,28.80
2018-09-18T18:09:43.441Z,28.70
2018-09-18T18:12:14.309Z,28.60
2018-09-18T18:14:45.065Z,28.50
2018-09-18T18:17:15.801Z,28.40
2018-09-18T18:19:46.502Z,28.30
2018-09-18T18:22:17.265Z,28.10
2018-09-18T18:24:48.035Z,28.00
2018-09-18T18:27:18.683Z,27.90
2018-09-18T18:29:49.160Z,27.80
2018-09-18T18:32:19.871Z,27.70
2018-09-18T18:34:50.645Z,27.60
2018-09-18T18:37:21.341Z,27.60
2018-09-18T18:39:52.127Z,27.50
2018-09-18T18:42:23.121Z,27.40
2018-09-18T18:44:53.788Z,27.40
2018-09-18T18:47:24.524Z,27.20
2018-09-18T18:49:55.227Z,27.20
2018-09-18T18:55:09.216Z,27.00
2018-09-18T18:57:39.939Z,26.90
2018-09-18T19:00:10.678Z,26.90
2018-09-18T19:02:41.384Z,26.80
2018-09-18T19:05:12.601Z,26.70
2018-09-18T19:07:43.323Z,26.70
2018-09-18T19:10:14.136Z,26.60
2018-09-18T19:12:44.807Z,26.50
2018-09-18T19:15:15.414Z,26.50
2018-09-18T19:17:46.016Z,26.40
2018-09-18T19:20:16.590Z,26.30
2018-09-18T19:22:47.234Z,26.30
2018-09-18T19:25:17.818Z,26.20
2018-09-18T19:27:48.711Z,26.20
2018-09-18T19:30:20.783Z,26.10
2018-09-18T19:32:51.486Z,26.00
2018-09-18T19:35:22.228Z,25.90
2018-09-18T19:37:53.241Z,25.90
2018-09-18T19:40:24.178Z,25.90
2018-09-18T19:42:54.889Z,25.80
2018-09-18T19:45:25.539Z,25.70
2018-09-18T19:47:56.277Z,25.60
2018-09-18T19:50:26.826Z,25.60
2018-09-18T19:52:57.543Z,25.50
2018-09-18T19:55:28.685Z,25.40
2018-09-18T19:57:59.319Z,25.40
2018-09-18T20:00:30.014Z,25.30
2018-09-18T20:03:00.847Z,25.30
2018-09-18T20:05:31.499Z,25.20
2018-09-18T20:08:02.224Z,25.20
2018-09-18T20:10:32.901Z,25.10
2018-09-18T20:13:03.596Z,25.10
2018-09-18T20:15:34.211Z,25.00
2018-09-18T20:18:04.902Z,24.90
2018-09-18T20:20:36.463Z,24.90
2018-09-18T20:23:07.137Z,24.80
2018-09-18T20:25:37.772Z,24.70
2018-09-18T20:28:08.378Z,24.70
2018-09-18T20:30:39.004Z,24.60
2018-09-18T20:33:09.501Z,24.60
2018-09-18T20:35:39.685Z,24.50
2018-09-18T20:38:10.052Z,24.50
2018-09-18T20:40:40.157Z,24.40
2018-09-18T20:43:10.255Z,24.30
2018-09-18T20:45:40.223Z,24.30
2018-09-18T20:48:10.263Z,24.20
2018-09-18T20:50:40.298Z,24.20
2018-09-18T20:53:10.335Z,24.10
2018-09-18T20:55:40.374Z,24.00
2018-09-18T20:58:10.571Z,24.00
2018-09-18T21:00:40.514Z,24.00
2018-09-18T21:03:10.556Z,23.90
2018-09-18T21:05:40.642Z,23.80
2018-09-18T21:08:13.724Z,23.80
2018-09-18T21:10:43.821Z,23.70
2018-09-18T21:13:13.892Z,23.70
2018-09-18T21:15:43.924Z,23.60
2018-09-18T21:18:13.968Z,23.50
2018-09-18T21:20:44.044Z,23.50
2018-09-18T21:23:14.354Z,23.40
2018-09-18T21:26:02.162Z,23.40
2018-09-18T21:28:32.326Z,23.30
2018-09-18T21:31:02.881Z,23.20
2018-09-18T21:33:32.931Z,23.10
2018-09-18T21:36:03.000Z,23.10
2018-09-18T21:38:33.117Z,23.00
2018-09-18T21:41:03.228Z,22.90
2018-09-18T21:43:33.386Z,22.90
2018-09-18T21:46:03.459Z,22.80
2018-09-18T21:48:33.453Z,22.80
2018-09-18T21:51:03.515Z,22.70
2018-09-18T21:53:33.624Z,22.60
2018-09-18T21:56:03.600Z,22.60
2018-09-18T21:58:33.581Z,22.60
2018-09-18T22:01:05.074Z,22.60
2018-09-18T22:03:35.570Z,22.50
2018-09-18T22:06:05.609Z,22.50
2018-09-18T22:08:36.955Z,22.40
2018-09-18T22:11:07.034Z,22.30
2018-09-18T22:13:37.041Z,22.30
2018-09-18T22:16:07.181Z,22.20
2018-09-18T22:18:37.169Z,22.20
2018-09-18T22:21:07.365Z,22.20
2018-09-18T22:23:37.364Z,22.10
2018-09-18T22:26:07.331Z,22.10
2018-09-18T22:28:37.252Z,22.00
2018-09-18T22:31:07.317Z,22.00
2018-09-18T22:33:37.276Z,21.90
2018-09-18T22:36:07.301Z,21.90
2018-09-18T22:38:37.269Z,21.80
2018-09-18T22:41:07.395Z,21.80
2018-09-18T22:43:37.414Z,21.80
2018-09-18T22:46:07.495Z,21.80
2018-09-18T22:48:37.528Z,21.70
2018-09-18T22:51:11.193Z,21.70
2018-09-18T22:53:41.220Z,21.60
2018-09-18T22:56:11.328Z,21.60
2018-09-18T22:58:41.336Z,21.60
2018-09-18T23:01:11.428Z,21.60
2018-09-18T23:03:41.506Z,21.50
2018-09-18T23:06:11.592Z,21.50
2018-09-18T23:08:41.490Z,21.40
2018-09-18T23:11:11.720Z,21.40
2018-09-18T23:13:41.659Z,21.30
2018-09-18T23:16:11.696Z,21.30
2018-09-18T23:18:41.749Z,21.30
2018-09-18T23:21:11.682Z,21.30
2018-09-18T23:23:41.649Z,21.30
2018-09-18T23:26:11.761Z,21.20
2018-09-18T23:28:41.803Z,21.20
2018-09-18T23:31:12.099Z,21.20
2018-09-18T23:33:42.062Z,21.10
2018-09-18T23:36:12.115Z,21.10
2018-09-18T23:38:42.136Z,21.10
2018-09-18T23:41:12.205Z,21.00
2018-09-18T23:43:42.329Z,21.00
2018-09-18T23:46:12.488Z,20.90
2018-09-18T23:48:42.440Z,20.90
2018-09-18T23:51:12.444Z,20.90
2018-09-18T23:53:42.448Z,20.80
2018-09-18T23:56:12.543Z,20.80
2018-09-18T23:58:42.526Z,20.80
